Woodstock, Minnesota
Current Conditions -  °F | °C
As of 6:55 AM on Saturday 22 Nov 2014 (Local Time) from KPQN Reporting Station
Moderate Fog Moderate Fog  
Wind Chill: 23°   Ceiling: 200
Heat Index: 30°   Visibility: 0.25mi
Dew Point: 28°   Wind: 7mph
Humidity: 93%   Direction: 200°SSW
Pressure: 29.74"   Gusts: NA
Location:  44.01°N, 96.1°W
Report Text: KPQN 221255Z AUTO 20006KT 1/4SM FZFG OVC002 M01/M02 A2974 RMK AO2
Loading
Personal Weather Stations






























Interactive Weather Map New forecast layout! Learn more

10-Day Weather Forecast

Advertisements
Track Severe Weather on mobile